sensor_id;sensor_type;location;lat;lon;timestamp;P1;durP1;ratioP1;P2;durP2;ratioP2
28335;SDS011;15592;53.656;7.276;2024-03-25T00:00:49;9.77;;;2.35;;
28335;SDS011;15592;53.656;7.276;2024-03-25T00:03:15;20.98;;;2.88;;
28335;SDS011;15592;53.656;7.276;2024-03-25T00:05:40;9.68;;;2.85;;
28335;SDS011;15592;53.656;7.276;2024-03-25T00:08:06;12.85;;;2.60;;
28335;SDS011;15592;53.656;7.276;2024-03-25T00:10:32;11.18;;;2.65;;
28335;SDS011;15592;53.656;7.276;2024-03-25T00:12:58;16.38;;;3.15;;
28335;SDS011;15592;53.656;7.276;2024-03-25T00:15:23;12.43;;;2.80;;
28335;SDS011;15592;53.656;7.276;2024-03-25T00:17:49;9.90;;;2.40;;
28335;SDS011;15592;53.656;7.276;2024-03-25T00:20:15;17.27;;;3.35;;
28335;SDS011;15592;53.656;7.276;2024-03-25T00:22:41;11.70;;;2.45;;
28335;SDS011;15592;53.656;7.276;2024-03-25T00:25:07;10.70;;;2.75;;
28335;SDS011;15592;53.656;7.276;2024-03-25T00:27:33;11.85;;;3.08;;
28335;SDS011;15592;53.656;7.276;2024-03-25T00:29:59;11.85;;;2.75;;
28335;SDS011;15592;53.656;7.276;2024-03-25T00:32:25;19.35;;;2.95;;
28335;SDS011;15592;53.656;7.276;2024-03-25T00:34:50;13.77;;;2.75;;
28335;SDS011;15592;53.656;7.276;2024-03-25T00:37:16;14.52;;;3.00;;
28335;SDS011;15592;53.656;7.276;2024-03-25T00:39:42;19.95;;;3.17;;
28335;SDS011;15592;53.656;7.276;2024-03-25T00:42:07;21.80;;;3.38;;
28335;SDS011;15592;53.656;7.276;2024-03-25T00:44:33;13.50;;;2.92;;
28335;SDS011;15592;53.656;7.276;2024-03-25T00:46:59;11.70;;;2.42;;
28335;SDS011;15592;53.656;7.276;2024-03-25T00:49:24;12.88;;;2.55;;
28335;SDS011;15592;53.656;7.276;2024-03-25T00:51:50;9.85;;;2.45;;
28335;SDS011;15592;53.656;7.276;2024-03-25T00:54:17;12.40;;;2.72;;
28335;SDS011;15592;53.656;7.276;2024-03-25T00:56:42;7.75;;;2.03;;
28335;SDS011;15592;53.656;7.276;2024-03-25T00:59:09;8.93;;;2.55;;
28335;SDS011;15592;53.656;7.276;2024-03-25T01:01:34;10.32;;;2.20;;
28335;SDS011;15592;53.656;7.276;2024-03-25T01:04:03;8.15;;;2.47;;
28335;SDS011;15592;53.656;7.276;2024-03-25T01:06:29;8.88;;;2.78;;
28335;SDS011;15592;53.656;7.276;2024-03-25T01:08:55;6.85;;;2.33;;
28335;SDS011;15592;53.656;7.276;2024-03-25T01:11:20;8.68;;;2.28;;
28335;SDS011;15592;53.656;7.276;2024-03-25T01:13:47;10.88;;;2.90;;
28335;SDS011;15592;53.656;7.276;2024-03-25T01:16:13;10.90;;;2.33;;
28335;SDS011;15592;53.656;7.276;2024-03-25T01:18:38;13.05;;;2.75;;
28335;SDS011;15592;53.656;7.276;2024-03-25T01:21:04;10.88;;;2.65;;
28335;SDS011;15592;53.656;7.276;2024-03-25T01:23:30;13.02;;;3.20;;
28335;SDS011;15592;53.656;7.276;2024-03-25T01:25:55;11.43;;;2.70;;
28335;SDS011;15592;53.656;7.276;2024-03-25T01:28:21;12.27;;;2.88;;
28335;SDS011;15592;53.656;7.276;2024-03-25T01:30:47;8.05;;;2.28;;
28335;SDS011;15592;53.656;7.276;2024-03-25T01:33:13;7.82;;;2.20;;
28335;SDS011;15592;53.656;7.276;2024-03-25T01:35:39;11.02;;;2.33;;
28335;SDS011;15592;53.656;7.276;2024-03-25T01:38:05;12.77;;;2.72;;
28335;SDS011;15592;53.656;7.276;2024-03-25T01:40:30;5.53;;;2.38;;
28335;SDS011;15592;53.656;7.276;2024-03-25T01:42:56;7.82;;;1.85;;
28335;SDS011;15592;53.656;7.276;2024-03-25T01:45:24;7.10;;;2.53;;
28335;SDS011;15592;53.656;7.276;2024-03-25T01:47:51;6.32;;;1.80;;
28335;SDS011;15592;53.656;7.276;2024-03-25T01:50:17;11.90;;;1.95;;
28335;SDS011;15592;53.656;7.276;2024-03-25T01:52:43;10.32;;;2.20;;
28335;SDS011;15592;53.656;7.276;2024-03-25T01:55:10;7.53;;;2.20;;
28335;SDS011;15592;53.656;7.276;2024-03-25T01:57:43;5.53;;;1.63;;
28335;SDS011;15592;53.656;7.276;2024-03-25T02:00:10;6.50;;;1.98;;
28335;SDS011;15592;53.656;7.276;2024-03-25T02:02:36;5.53;;;2.17;;
28335;SDS011;15592;53.656;7.276;2024-03-25T02:05:06;9.43;;;2.38;;
28335;SDS011;15592;53.656;7.276;2024-03-25T02:07:33;10.02;;;2.50;;
28335;SDS011;15592;53.656;7.276;2024-03-25T02:10:02;10.23;;;2.47;;
28335;SDS011;15592;53.656;7.276;2024-03-25T02:12:29;11.25;;;2.70;;
28335;SDS011;15592;53.656;7.276;2024-03-25T02:14:56;11.63;;;2.47;;
28335;SDS011;15592;53.656;7.276;2024-03-25T02:17:23;10.88;;;2.58;;
28335;SDS011;15592;53.656;7.276;2024-03-25T02:19:49;14.48;;;3.15;;
28335;SDS011;15592;53.656;7.276;2024-03-25T02:22:15;9.23;;;1.80;;
28335;SDS011;15592;53.656;7.276;2024-03-25T02:24:41;4.47;;;1.58;;
28335;SDS011;15592;53.656;7.276;2024-03-25T02:27:07;11.48;;;2.97;;
28335;SDS011;15592;53.656;7.276;2024-03-25T02:29:35;3.78;;;1.80;;
28335;SDS011;15592;53.656;7.276;2024-03-25T02:32:01;11.55;;;2.38;;
28335;SDS011;15592;53.656;7.276;2024-03-25T02:34:26;12.07;;;2.60;;
28335;SDS011;15592;53.656;7.276;2024-03-25T02:36:52;7.95;;;2.10;;
28335;SDS011;15592;53.656;7.276;2024-03-25T02:39:19;8.13;;;2.13;;
28335;SDS011;15592;53.656;7.276;2024-03-25T02:41:45;10.32;;;2.90;;
28335;SDS011;15592;53.656;7.276;2024-03-25T02:44:12;11.35;;;2.60;;
28335;SDS011;15592;53.656;7.276;2024-03-25T02:46:39;7.90;;;2.10;;
28335;SDS011;15592;53.656;7.276;2024-03-25T02:49:06;8.45;;;2.55;;
28335;SDS011;15592;53.656;7.276;2024-03-25T02:51:31;7.97;;;1.92;;
28335;SDS011;15592;53.656;7.276;2024-03-25T02:53:57;6.88;;;1.65;;
28335;SDS011;15592;53.656;7.276;2024-03-25T02:56:22;8.63;;;2.70;;
28335;SDS011;15592;53.656;7.276;2024-03-25T02:58:48;9.43;;;2.42;;
28335;SDS011;15592;53.656;7.276;2024-03-25T03:01:15;14.40;;;2.53;;
28335;SDS011;15592;53.656;7.276;2024-03-25T03:03:41;11.63;;;2.72;;
28335;SDS011;15592;53.656;7.276;2024-03-25T03:06:06;8.20;;;1.83;;
28335;SDS011;15592;53.656;7.276;2024-03-25T03:08:32;10.43;;;2.05;;
28335;SDS011;15592;53.656;7.276;2024-03-25T03:10:58;13.98;;;2.17;;
28335;SDS011;15592;53.656;7.276;2024-03-25T03:13:23;8.68;;;1.77;;
28335;SDS011;15592;53.656;7.276;2024-03-25T03:15:49;7.72;;;2.00;;
28335;SDS011;15592;53.656;7.276;2024-03-25T03:18:14;6.38;;;1.88;;
28335;SDS011;15592;53.656;7.276;2024-03-25T03:20:40;9.13;;;2.17;;
28335;SDS011;15592;53.656;7.276;2024-03-25T03:23:06;10.75;;;2.15;;
28335;SDS011;15592;53.656;7.276;2024-03-25T03:25:31;8.38;;;2.03;;
28335;SDS011;15592;53.656;7.276;2024-03-25T03:27:57;7.93;;;1.63;;
28335;SDS011;15592;53.656;7.276;2024-03-25T03:30:22;9.50;;;2.28;;
28335;SDS011;15592;53.656;7.276;2024-03-25T03:32:48;8.77;;;1.70;;
28335;SDS011;15592;53.656;7.276;2024-03-25T03:35:13;7.18;;;2.08;;
28335;SDS011;15592;53.656;7.276;2024-03-25T03:37:39;8.35;;;2.10;;
28335;SDS011;15592;53.656;7.276;2024-03-25T03:40:05;8.70;;;2.05;;
28335;SDS011;15592;53.656;7.276;2024-03-25T03:42:31;11.25;;;2.58;;
28335;SDS011;15592;53.656;7.276;2024-03-25T03:44:56;11.15;;;2.83;;
28335;SDS011;15592;53.656;7.276;2024-03-25T03:47:22;11.43;;;2.75;;
28335;SDS011;15592;53.656;7.276;2024-03-25T03:49:48;11.73;;;2.38;;
28335;SDS011;15592;53.656;7.276;2024-03-25T03:52:13;11.40;;;2.38;;
28335;SDS011;15592;53.656;7.276;2024-03-25T03:54:39;8.77;;;2.13;;
28335;SDS011;15592;53.656;7.276;2024-03-25T03:57:04;10.25;;;2.47;;
28335;SDS011;15592;53.656;7.276;2024-03-25T03:59:30;13.60;;;2.20;;
28335;SDS011;15592;53.656;7.276;2024-03-25T04:01:56;8.65;;;1.95;;
28335;SDS011;15592;53.656;7.276;2024-03-25T04:04:22;7.45;;;2.28;;
28335;SDS011;15592;53.656;7.276;2024-03-25T04:06:48;8.50;;;2.20;;
28335;SDS011;15592;53.656;7.276;2024-03-25T04:09:14;20.33;;;2.42;;
28335;SDS011;15592;53.656;7.276;2024-03-25T04:11:39;14.35;;;2.50;;
28335;SDS011;15592;53.656;7.276;2024-03-25T04:14:05;11.80;;;2.42;;
28335;SDS011;15592;53.656;7.276;2024-03-25T04:16:31;8.45;;;1.88;;
28335;SDS011;15592;53.656;7.276;2024-03-25T04:18:56;6.15;;;1.50;;
28335;SDS011;15592;53.656;7.276;2024-03-25T04:21:22;5.15;;;1.50;;
28335;SDS011;15592;53.656;7.276;2024-03-25T04:23:48;3.20;;;1.13;;
28335;SDS011;15592;53.656;7.276;2024-03-25T04:26:14;3.00;;;1.20;;
28335;SDS011;15592;53.656;7.276;2024-03-25T04:28:40;3.95;;;1.00;;
28335;SDS011;15592;53.656;7.276;2024-03-25T04:31:07;4.18;;;1.00;;
28335;SDS011;15592;53.656;7.276;2024-03-25T04:33:33;4.55;;;1.38;;
28335;SDS011;15592;53.656;7.276;2024-03-25T04:36:00;11.23;;;2.50;;
28335;SDS011;15592;53.656;7.276;2024-03-25T04:38:25;18.40;;;2.85;;
28335;SDS011;15592;53.656;7.276;2024-03-25T04:40:51;14.75;;;2.63;;
28335;SDS011;15592;53.656;7.276;2024-03-25T04:43:16;12.57;;;2.63;;
28335;SDS011;15592;53.656;7.276;2024-03-25T04:45:42;14.23;;;3.08;;
28335;SDS011;15592;53.656;7.276;2024-03-25T04:48:08;10.18;;;1.92;;
28335;SDS011;15592;53.656;7.276;2024-03-25T04:50:35;7.47;;;1.95;;
28335;SDS011;15592;53.656;7.276;2024-03-25T04:53:00;9.35;;;1.85;;
28335;SDS011;15592;53.656;7.276;2024-03-25T04:55:26;4.88;;;2.00;;
28335;SDS011;15592;53.656;7.276;2024-03-25T04:57:51;3.15;;;1.42;;
28335;SDS011;15592;53.656;7.276;2024-03-25T05:00:17;2.17;;;1.20;;
28335;SDS011;15592;53.656;7.276;2024-03-25T05:02:43;2.50;;;1.25;;
28335;SDS011;15592;53.656;7.276;2024-03-25T05:05:09;2.13;;;1.00;;
28335;SDS011;15592;53.656;7.276;2024-03-25T05:07:35;5.35;;;1.48;;
28335;SDS011;15592;53.656;7.276;2024-03-25T05:10:01;4.30;;;1.40;;
28335;SDS011;15592;53.656;7.276;2024-03-25T05:12:27;3.85;;;1.30;;
28335;SDS011;15592;53.656;7.276;2024-03-25T05:14:55;2.92;;;1.00;;
28335;SDS011;15592;53.656;7.276;2024-03-25T05:17:21;4.72;;;1.23;;
28335;SDS011;15592;53.656;7.276;2024-03-25T05:19:47;5.35;;;1.60;;
28335;SDS011;15592;53.656;7.276;2024-03-25T05:22:12;5.97;;;1.73;;
28335;SDS011;15592;53.656;7.276;2024-03-25T05:24:38;5.38;;;1.40;;
28335;SDS011;15592;53.656;7.276;2024-03-25T05:27:04;7.80;;;1.52;;
28335;SDS011;15592;53.656;7.276;2024-03-25T05:29:30;9.35;;;1.80;;
28335;SDS011;15592;53.656;7.276;2024-03-25T05:31:56;11.07;;;1.90;;
28335;SDS011;15592;53.656;7.276;2024-03-25T05:34:23;7.63;;;2.05;;
28335;SDS011;15592;53.656;7.276;2024-03-25T05:36:49;7.97;;;1.98;;
28335;SDS011;15592;53.656;7.276;2024-03-25T05:39:15;4.13;;;1.20;;
28335;SDS011;15592;53.656;7.276;2024-03-25T05:41:41;3.58;;;1.08;;
28335;SDS011;15592;53.656;7.276;2024-03-25T05:44:06;3.55;;;1.08;;
28335;SDS011;15592;53.656;7.276;2024-03-25T05:46:32;4.10;;;1.20;;
28335;SDS011;15592;53.656;7.276;2024-03-25T05:49:01;5.30;;;1.58;;
28335;SDS011;15592;53.656;7.276;2024-03-25T05:51:28;4.68;;;1.15;;
28335;SDS011;15592;53.656;7.276;2024-03-25T05:53:54;2.53;;;0.90;;
28335;SDS011;15592;53.656;7.276;2024-03-25T05:56:20;1.88;;;0.82;;
28335;SDS011;15592;53.656;7.276;2024-03-25T05:58:45;2.40;;;0.75;;
28335;SDS011;15592;53.656;7.276;2024-03-25T06:01:11;4.07;;;0.90;;
28335;SDS011;15592;53.656;7.276;2024-03-25T06:03:37;1.00;;;0.73;;
28335;SDS011;15592;53.656;7.276;2024-03-25T06:06:03;1.75;;;0.80;;
28335;SDS011;15592;53.656;7.276;2024-03-25T06:08:28;0.68;;;0.55;;
28335;SDS011;15592;53.656;7.276;2024-03-25T06:11:00;1.30;;;0.60;;
28335;SDS011;15592;53.656;7.276;2024-03-25T06:13:26;1.08;;;0.70;;
28335;SDS011;15592;53.656;7.276;2024-03-25T06:15:52;1.95;;;0.80;;
28335;SDS011;15592;53.656;7.276;2024-03-25T06:18:17;2.83;;;0.98;;
28335;SDS011;15592;53.656;7.276;2024-03-25T06:20:43;2.72;;;0.98;;
28335;SDS011;15592;53.656;7.276;2024-03-25T06:23:09;3.95;;;0.90;;
28335;SDS011;15592;53.656;7.276;2024-03-25T06:25:34;7.50;;;1.35;;
28335;SDS011;15592;53.656;7.276;2024-03-25T06:28:02;14.60;;;1.92;;
28335;SDS011;15592;53.656;7.276;2024-03-25T06:30:28;7.93;;;1.80;;
28335;SDS011;15592;53.656;7.276;2024-03-25T06:33:12;8.48;;;1.80;;
28335;SDS011;15592;53.656;7.276;2024-03-25T06:35:56;6.45;;;1.40;;
28335;SDS011;15592;53.656;7.276;2024-03-25T06:38:22;6.47;;;1.50;;
28335;SDS011;15592;53.656;7.276;2024-03-25T06:40:47;9.98;;;1.85;;
28335;SDS011;15592;53.656;7.276;2024-03-25T06:43:13;3.85;;;1.30;;
28335;SDS011;15592;53.656;7.276;2024-03-25T06:45:41;5.32;;;1.42;;
28335;SDS011;15592;53.656;7.276;2024-03-25T06:48:06;3.60;;;1.38;;
28335;SDS011;15592;53.656;7.276;2024-03-25T06:50:33;3.03;;;1.08;;
28335;SDS011;15592;53.656;7.276;2024-03-25T06:52:58;3.05;;;1.05;;
28335;SDS011;15592;53.656;7.276;2024-03-25T06:55:24;2.00;;;1.00;;
28335;SDS011;15592;53.656;7.276;2024-03-25T06:57:52;2.50;;;0.95;;
28335;SDS011;15592;53.656;7.276;2024-03-25T07:00:18;2.25;;;0.80;;
28335;SDS011;15592;53.656;7.276;2024-03-25T07:02:47;4.22;;;0.90;;
28335;SDS011;15592;53.656;7.276;2024-03-25T07:05:16;2.30;;;0.82;;
28335;SDS011;15592;53.656;7.276;2024-03-25T07:07:41;1.17;;;0.70;;
28335;SDS011;15592;53.656;7.276;2024-03-25T07:10:07;1.80;;;0.93;;
28335;SDS011;15592;53.656;7.276;2024-03-25T07:12:33;3.70;;;1.20;;
28335;SDS011;15592;53.656;7.276;2024-03-25T07:14:59;3.63;;;1.00;;
28335;SDS011;15592;53.656;7.276;2024-03-25T07:17:24;2.90;;;1.00;;
28335;SDS011;15592;53.656;7.276;2024-03-25T07:19:51;7.65;;;1.15;;
28335;SDS011;15592;53.656;7.276;2024-03-25T07:22:17;2.15;;;1.15;;
28335;SDS011;15592;53.656;7.276;2024-03-25T07:24:43;2.33;;;1.00;;
28335;SDS011;15592;53.656;7.276;2024-03-25T07:27:09;4.20;;;1.20;;
28335;SDS011;15592;53.656;7.276;2024-03-25T07:29:39;2.17;;;1.10;;
28335;SDS011;15592;53.656;7.276;2024-03-25T07:32:12;2.33;;;0.90;;
28335;SDS011;15592;53.656;7.276;2024-03-25T07:34:37;3.75;;;1.15;;
28335;SDS011;15592;53.656;7.276;2024-03-25T07:37:03;3.78;;;1.17;;
28335;SDS011;15592;53.656;7.276;2024-03-25T07:39:31;4.22;;;1.00;;
28335;SDS011;15592;53.656;7.276;2024-03-25T07:41:57;2.28;;;1.00;;
28335;SDS011;15592;53.656;7.276;2024-03-25T07:44:22;4.18;;;1.63;;
28335;SDS011;15592;53.656;7.276;2024-03-25T07:46:48;2.78;;;0.98;;
28335;SDS011;15592;53.656;7.276;2024-03-25T07:49:14;1.50;;;0.70;;
28335;SDS011;15592;53.656;7.276;2024-03-25T07:51:39;3.30;;;1.00;;
28335;SDS011;15592;53.656;7.276;2024-03-25T07:54:05;1.38;;;0.50;;
28335;SDS011;15592;53.656;7.276;2024-03-25T07:56:40;2.28;;;1.10;;
28335;SDS011;15592;53.656;7.276;2024-03-25T07:59:11;1.52;;;0.70;;
28335;SDS011;15592;53.656;7.276;2024-03-25T08:01:46;4.07;;;0.90;;
28335;SDS011;15592;53.656;7.276;2024-03-25T08:04:15;1.23;;;0.60;;
28335;SDS011;15592;53.656;7.276;2024-03-25T08:06:46;1.40;;;0.75;;
28335;SDS011;15592;53.656;7.276;2024-03-25T08:09:15;1.75;;;0.80;;
28335;SDS011;15592;53.656;7.276;2024-03-25T08:11:42;0.85;;;0.70;;
28335;SDS011;15592;53.656;7.276;2024-03-25T08:14:11;1.00;;;0.70;;
28335;SDS011;15592;53.656;7.276;2024-03-25T08:16:37;0.80;;;0.75;;
28335;SDS011;15592;53.656;7.276;2024-03-25T08:19:03;1.25;;;0.70;;
28335;SDS011;15592;53.656;7.276;2024-03-25T08:21:29;1.10;;;0.70;;
28335;SDS011;15592;53.656;7.276;2024-03-25T08:23:55;2.90;;;0.80;;
28335;SDS011;15592;53.656;7.276;2024-03-25T08:26:21;1.13;;;0.80;;
28335;SDS011;15592;53.656;7.276;2024-03-25T08:28:46;2.13;;;0.77;;
28335;SDS011;15592;53.656;7.276;2024-03-25T08:31:13;1.52;;;0.70;;
28335;SDS011;15592;53.656;7.276;2024-03-25T08:33:39;2.22;;;0.88;;
28335;SDS011;15592;53.656;7.276;2024-03-25T08:36:14;0.60;;;0.60;;
28335;SDS011;15592;53.656;7.276;2024-03-25T08:38:43;1.42;;;0.50;;
28335;SDS011;15592;53.656;7.276;2024-03-25T08:41:09;0.75;;;0.47;;
28335;SDS011;15592;53.656;7.276;2024-03-25T08:43:35;1.48;;;0.60;;
28335;SDS011;15592;53.656;7.276;2024-03-25T08:46:01;1.08;;;0.65;;
28335;SDS011;15592;53.656;7.276;2024-03-25T08:48:28;1.52;;;0.60;;
28335;SDS011;15592;53.656;7.276;2024-03-25T08:50:54;0.65;;;0.50;;
28335;SDS011;15592;53.656;7.276;2024-03-25T08:53:20;1.15;;;0.60;;
28335;SDS011;15592;53.656;7.276;2024-03-25T08:55:46;0.70;;;0.50;;
28335;SDS011;15592;53.656;7.276;2024-03-25T08:58:13;0.75;;;0.45;;
28335;SDS011;15592;53.656;7.276;2024-03-25T09:00:39;0.80;;;0.60;;
28335;SDS011;15592;53.656;7.276;2024-03-25T09:03:05;0.88;;;0.68;;
28335;SDS011;15592;53.656;7.276;2024-03-25T09:05:31;1.95;;;0.70;;
28335;SDS011;15592;53.656;7.276;2024-03-25T09:07:56;2.03;;;0.73;;
28335;SDS011;15592;53.656;7.276;2024-03-25T09:10:23;2.03;;;0.70;;
28335;SDS011;15592;53.656;7.276;2024-03-25T09:13:08;1.33;;;0.70;;
28335;SDS011;15592;53.656;7.276;2024-03-25T09:15:34;3.10;;;0.85;;
28335;SDS011;15592;53.656;7.276;2024-03-25T09:17:59;2.25;;;0.73;;
28335;SDS011;15592;53.656;7.276;2024-03-25T09:20:25;0.93;;;0.50;;
28335;SDS011;15592;53.656;7.276;2024-03-25T09:22:51;0.65;;;0.50;;
28335;SDS011;15592;53.656;7.276;2024-03-25T09:25:17;1.48;;;0.60;;
28335;SDS011;15592;53.656;7.276;2024-03-25T09:27:47;0.63;;;0.50;;
28335;SDS011;15592;53.656;7.276;2024-03-25T09:30:13;1.13;;;0.60;;
28335;SDS011;15592;53.656;7.276;2024-03-25T09:32:42;1.17;;;0.50;;
28335;SDS011;15592;53.656;7.276;2024-03-25T09:35:08;1.77;;;0.90;;
28335;SDS011;15592;53.656;7.276;2024-03-25T09:37:35;1.70;;;0.47;;
28335;SDS011;15592;53.656;7.276;2024-03-25T09:40:01;1.92;;;0.68;;
28335;SDS011;15592;53.656;7.276;2024-03-25T09:42:31;2.75;;;0.60;;
28335;SDS011;15592;53.656;7.276;2024-03-25T09:45:00;1.50;;;0.55;;
28335;SDS011;15592;53.656;7.276;2024-03-25T09:47:28;3.33;;;0.93;;
28335;SDS011;15592;53.656;7.276;2024-03-25T09:49:54;1.88;;;0.73;;
28335;SDS011;15592;53.656;7.276;2024-03-25T09:52:20;1.10;;;0.70;;
28335;SDS011;15592;53.656;7.276;2024-03-25T09:54:45;1.35;;;0.68;;
28335;SDS011;15592;53.656;7.276;2024-03-25T09:57:11;1.02;;;0.55;;
28335;SDS011;15592;53.656;7.276;2024-03-25T09:59:38;2.08;;;0.77;;
28335;SDS011;15592;53.656;7.276;2024-03-25T10:02:04;6.80;;;1.45;;
28335;SDS011;15592;53.656;7.276;2024-03-25T10:04:31;7.22;;;1.45;;
28335;SDS011;15592;53.656;7.276;2024-03-25T10:06:58;3.33;;;1.13;;
28335;SDS011;15592;53.656;7.276;2024-03-25T10:09:23;4.45;;;1.30;;
28335;SDS011;15592;53.656;7.276;2024-03-25T10:11:50;3.70;;;1.27;;
28335;SDS011;15592;53.656;7.276;2024-03-25T10:14:16;2.70;;;1.20;;
28335;SDS011;15592;53.656;7.276;2024-03-25T10:16:42;1.58;;;0.85;;
28335;SDS011;15592;53.656;7.276;2024-03-25T10:19:08;2.47;;;1.10;;
28335;SDS011;15592;53.656;7.276;2024-03-25T10:21:34;5.45;;;1.55;;
28335;SDS011;15592;53.656;7.276;2024-03-25T10:24:00;8.23;;;1.80;;
28335;SDS011;15592;53.656;7.276;2024-03-25T10:26:29;6.10;;;1.70;;
28335;SDS011;15592;53.656;7.276;2024-03-25T10:29:06;2.35;;;1.00;;
28335;SDS011;15592;53.656;7.276;2024-03-25T10:31:32;8.30;;;1.47;;
28335;SDS011;15592;53.656;7.276;2024-03-25T10:33:59;5.65;;;1.20;;
28335;SDS011;15592;53.656;7.276;2024-03-25T10:36:25;3.58;;;1.25;;
28335;SDS011;15592;53.656;7.276;2024-03-25T10:38:53;3.28;;;1.17;;
28335;SDS011;15592;53.656;7.276;2024-03-25T10:41:20;7.03;;;1.55;;
28335;SDS011;15592;53.656;7.276;2024-03-25T10:43:48;5.93;;;1.58;;
28335;SDS011;15592;53.656;7.276;2024-03-25T10:46:20;3.15;;;1.50;;
28335;SDS011;15592;53.656;7.276;2024-03-25T10:48:48;3.95;;;1.00;;
28335;SDS011;15592;53.656;7.276;2024-03-25T10:51:20;5.85;;;1.33;;
28335;SDS011;15592;53.656;7.276;2024-03-25T10:53:46;7.72;;;1.10;;
28335;SDS011;15592;53.656;7.276;2024-03-25T10:56:15;7.28;;;1.85;;
28335;SDS011;15592;53.656;7.276;2024-03-25T10:58:41;8.82;;;1.60;;
28335;SDS011;15592;53.656;7.276;2024-03-25T11:01:07;4.38;;;1.40;;
28335;SDS011;15592;53.656;7.276;2024-03-25T11:03:34;6.38;;;1.67;;
28335;SDS011;15592;53.656;7.276;2024-03-25T11:06:00;5.07;;;1.42;;
28335;SDS011;15592;53.656;7.276;2024-03-25T11:08:30;4.72;;;1.33;;
28335;SDS011;15592;53.656;7.276;2024-03-25T11:10:57;5.07;;;1.58;;
28335;SDS011;15592;53.656;7.276;2024-03-25T11:13:23;5.40;;;1.50;;
28335;SDS011;15592;53.656;7.276;2024-03-25T11:15:48;4.55;;;0.95;;
28335;SDS011;15592;53.656;7.276;2024-03-25T11:18:15;8.75;;;1.65;;
28335;SDS011;15592;53.656;7.276;2024-03-25T11:20:41;2.75;;;1.17;;
28335;SDS011;15592;53.656;7.276;2024-03-25T11:23:11;4.47;;;1.92;;
28335;SDS011;15592;53.656;7.276;2024-03-25T11:28:04;4.18;;;1.10;;
28335;SDS011;15592;53.656;7.276;2024-03-25T11:30:33;3.95;;;1.10;;
28335;SDS011;15592;53.656;7.276;2024-03-25T11:33:04;2.95;;;1.20;;
28335;SDS011;15592;53.656;7.276;2024-03-25T11:35:30;6.80;;;1.60;;
28335;SDS011;15592;53.656;7.276;2024-03-25T11:38:02;3.47;;;1.10;;
28335;SDS011;15592;53.656;7.276;2024-03-25T11:40:28;2.25;;;0.90;;
28335;SDS011;15592;53.656;7.276;2024-03-25T11:42:53;3.45;;;0.90;;
28335;SDS011;15592;53.656;7.276;2024-03-25T11:45:20;3.20;;;0.95;;
28335;SDS011;15592;53.656;7.276;2024-03-25T11:47:47;3.25;;;1.27;;
28335;SDS011;15592;53.656;7.276;2024-03-25T11:50:14;3.55;;;0.90;;
28335;SDS011;15592;53.656;7.276;2024-03-25T11:52:41;3.85;;;0.95;;
28335;SDS011;15592;53.656;7.276;2024-03-25T11:55:07;4.80;;;1.38;;
28335;SDS011;15592;53.656;7.276;2024-03-25T11:57:35;7.65;;;1.40;;
28335;SDS011;15592;53.656;7.276;2024-03-25T12:00:01;2.78;;;0.82;;
28335;SDS011;15592;53.656;7.276;2024-03-25T12:02:31;4.65;;;1.13;;
28335;SDS011;15592;53.656;7.276;2024-03-25T12:04:57;3.30;;;1.20;;
28335;SDS011;15592;53.656;7.276;2024-03-25T12:07:23;3.70;;;1.00;;
28335;SDS011;15592;53.656;7.276;2024-03-25T12:09:48;4.13;;;1.10;;
28335;SDS011;15592;53.656;7.276;2024-03-25T12:12:32;3.38;;;1.23;;
28335;SDS011;15592;53.656;7.276;2024-03-25T12:14:59;4.07;;;1.15;;
28335;SDS011;15592;53.656;7.276;2024-03-25T12:17:27;2.15;;;1.00;;
28335;SDS011;15592;53.656;7.276;2024-03-25T12:20:03;2.67;;;0.93;;
28335;SDS011;15592;53.656;7.276;2024-03-25T12:22:31;5.18;;;1.40;;
28335;SDS011;15592;53.656;7.276;2024-03-25T12:25:00;3.22;;;1.10;;
28335;SDS011;15592;53.656;7.276;2024-03-25T12:27:27;2.78;;;1.25;;
28335;SDS011;15592;53.656;7.276;2024-03-25T12:32:41;2.55;;;1.08;;
28335;SDS011;15592;53.656;7.276;2024-03-25T12:35:11;2.95;;;0.90;;
28335;SDS011;15592;53.656;7.276;2024-03-25T12:37:39;1.42;;;0.88;;
28335;SDS011;15592;53.656;7.276;2024-03-25T12:40:06;1.17;;;0.65;;
28335;SDS011;15592;53.656;7.276;2024-03-25T12:42:33;3.15;;;1.00;;
28335;SDS011;15592;53.656;7.276;2024-03-25T12:44:59;1.55;;;0.70;;
28335;SDS011;15592;53.656;7.276;2024-03-25T12:47:25;1.60;;;0.85;;
28335;SDS011;15592;53.656;7.276;2024-03-25T12:49:50;3.65;;;1.33;;
28335;SDS011;15592;53.656;7.276;2024-03-25T12:52:16;1.60;;;0.75;;
28335;SDS011;15592;53.656;7.276;2024-03-25T12:54:41;1.75;;;0.90;;
28335;SDS011;15592;53.656;7.276;2024-03-25T12:57:07;1.73;;;0.60;;
28335;SDS011;15592;53.656;7.276;2024-03-25T12:59:33;1.67;;;0.65;;
28335;SDS011;15592;53.656;7.276;2024-03-25T13:01:59;4.18;;;0.90;;
28335;SDS011;15592;53.656;7.276;2024-03-25T13:04:25;2.08;;;0.90;;
28335;SDS011;15592;53.656;7.276;2024-03-25T13:06:51;1.40;;;0.70;;
28335;SDS011;15592;53.656;7.276;2024-03-25T13:09:17;3.50;;;1.35;;
28335;SDS011;15592;53.656;7.276;2024-03-25T13:11:42;3.10;;;1.00;;
28335;SDS011;15592;53.656;7.276;2024-03-25T13:14:11;3.60;;;1.00;;
28335;SDS011;15592;53.656;7.276;2024-03-25T13:16:37;3.03;;;0.80;;
28335;SDS011;15592;53.656;7.276;2024-03-25T13:19:06;1.45;;;0.85;;
28335;SDS011;15592;53.656;7.276;2024-03-25T13:21:32;2.17;;;0.80;;
28335;SDS011;15592;53.656;7.276;2024-03-25T13:23:58;1.83;;;0.80;;
28335;SDS011;15592;53.656;7.276;2024-03-25T13:26:24;2.03;;;0.70;;
28335;SDS011;15592;53.656;7.276;2024-03-25T13:28:50;1.52;;;0.70;;
28335;SDS011;15592;53.656;7.276;2024-03-25T13:31:16;5.95;;;1.40;;
28335;SDS011;15592;53.656;7.276;2024-03-25T13:33:42;1.50;;;0.68;;
28335;SDS011;15592;53.656;7.276;2024-03-25T13:36:07;4.82;;;1.23;;
28335;SDS011;15592;53.656;7.276;2024-03-25T13:38:33;3.05;;;1.05;;
28335;SDS011;15592;53.656;7.276;2024-03-25T13:41:02;1.60;;;0.70;;
28335;SDS011;15592;53.656;7.276;2024-03-25T13:43:28;1.30;;;0.60;;
28335;SDS011;15592;53.656;7.276;2024-03-25T13:45:53;2.58;;;0.90;;
28335;SDS011;15592;53.656;7.276;2024-03-25T13:48:19;3.50;;;1.05;;
28335;SDS011;15592;53.656;7.276;2024-03-25T13:50:45;3.42;;;1.20;;
28335;SDS011;15592;53.656;7.276;2024-03-25T13:53:10;3.60;;;1.08;;
28335;SDS011;15592;53.656;7.276;2024-03-25T13:55:36;3.17;;;0.80;;
28335;SDS011;15592;53.656;7.276;2024-03-25T13:58:01;5.78;;;1.15;;
28335;SDS011;15592;53.656;7.276;2024-03-25T14:00:27;3.60;;;1.08;;
28335;SDS011;15592;53.656;7.276;2024-03-25T14:02:56;3.20;;;1.02;;
28335;SDS011;15592;53.656;7.276;2024-03-25T14:05:22;2.47;;;0.85;;
28335;SDS011;15592;53.656;7.276;2024-03-25T14:07:50;0.88;;;0.50;;
28335;SDS011;15592;53.656;7.276;2024-03-25T14:10:16;3.17;;;0.93;;
28335;SDS011;15592;53.656;7.276;2024-03-25T14:12:42;1.50;;;0.73;;
28335;SDS011;15592;53.656;7.276;2024-03-25T14:15:08;3.33;;;0.98;;
28335;SDS011;15592;53.656;7.276;2024-03-25T14:17:34;2.20;;;0.75;;
28335;SDS011;15592;53.656;7.276;2024-03-25T14:20:00;2.60;;;0.82;;
28335;SDS011;15592;53.656;7.276;2024-03-25T14:22:25;2.05;;;0.85;;
28335;SDS011;15592;53.656;7.276;2024-03-25T14:24:51;1.70;;;0.82;;
28335;SDS011;15592;53.656;7.276;2024-03-25T14:27:22;1.30;;;0.60;;
28335;SDS011;15592;53.656;7.276;2024-03-25T14:29:48;6.25;;;0.82;;
28335;SDS011;15592;53.656;7.276;2024-03-25T14:32:14;6.80;;;1.60;;
28335;SDS011;15592;53.656;7.276;2024-03-25T14:34:39;2.40;;;0.80;;
28335;SDS011;15592;53.656;7.276;2024-03-25T14:37:05;2.97;;;1.13;;
28335;SDS011;15592;53.656;7.276;2024-03-25T14:39:31;1.95;;;0.82;;
28335;SDS011;15592;53.656;7.276;2024-03-25T14:41:56;2.22;;;1.00;;
28335;SDS011;15592;53.656;7.276;2024-03-25T14:44:22;1.98;;;0.98;;
28335;SDS011;15592;53.656;7.276;2024-03-25T14:46:48;1.63;;;0.73;;